createdAt,value
2023-05-19T00:00:12.651Z,51.98
2023-05-19T00:02:39.172Z,52.13
2023-05-19T00:05:05.632Z,52.43
2023-05-19T00:07:32.135Z,52.29
2023-05-19T00:09:58.631Z,52.52
2023-05-19T00:12:25.322Z,52.82
2023-05-19T00:14:51.769Z,52.46
2023-05-19T00:17:18.303Z,52.35
2023-05-19T00:19:44.696Z,51.63
2023-05-19T00:22:11.112Z,52.19
2023-05-19T00:24:37.617Z,52.72
2023-05-19T00:27:04.006Z,52.20
2023-05-19T00:29:30.378Z,51.93
2023-05-19T00:31:56.872Z,52.46
2023-05-19T00:34:23.286Z,52.47
2023-05-19T00:36:49.732Z,52.66
2023-05-19T00:39:16.291Z,52.24
2023-05-19T00:41:42.746Z,52.29
2023-05-19T00:44:09.163Z,52.04
2023-05-19T00:46:35.725Z,52.08
2023-05-19T00:49:02.192Z,52.26
2023-05-19T00:51:28.821Z,52.24
2023-05-19T00:53:55.591Z,52.04
2023-05-19T00:56:21.997Z,52.22
2023-05-19T00:58:48.368Z,51.97
2023-05-19T01:01:14.920Z,52.30
2023-05-19T01:03:41.497Z,52.25
2023-05-19T01:06:08.204Z,51.98
2023-05-19T01:08:34.742Z,52.42
2023-05-19T01:11:01.089Z,52.22
2023-05-19T01:13:27.586Z,51.77
2023-05-19T01:15:54.000Z,51.63
2023-05-19T01:18:20.798Z,52.34
2023-05-19T01:20:47.213Z,51.97
2023-05-19T01:23:13.731Z,51.91
2023-05-19T01:25:40.624Z,52.38
2023-05-19T01:28:07.028Z,52.45
2023-05-19T01:30:33.557Z,52.54
2023-05-19T01:33:00.377Z,52.71
2023-05-19T01:35:26.844Z,52.42
2023-05-19T01:37:53.285Z,52.85
2023-05-19T01:40:19.716Z,52.12
2023-05-19T01:42:46.182Z,51.89
2023-05-19T01:45:12.649Z,51.99
2023-05-19T01:47:39.111Z,52.30
2023-05-19T01:50:05.680Z,51.87
2023-05-19T01:52:32.087Z,52.45
2023-05-19T01:54:58.643Z,52.19
2023-05-19T01:57:25.124Z,52.03
2023-05-19T01:59:51.515Z,52.31
2023-05-19T02:02:17.958Z,51.96
2023-05-19T02:04:44.578Z,51.86
2023-05-19T02:07:11.109Z,52.18
2023-05-19T02:09:37.524Z,52.30
2023-05-19T02:12:04.037Z,52.08
2023-05-19T02:14:30.488Z,51.88
2023-05-19T02:16:56.912Z,52.25
2023-05-19T02:19:23.473Z,51.92
2023-05-19T02:21:50.100Z,51.80
2023-05-19T02:24:17.650Z,52.10
2023-05-19T02:26:44.080Z,51.86
2023-05-19T02:29:10.664Z,52.42
2023-05-19T02:31:37.123Z,52.47
2023-05-19T02:34:03.668Z,52.81
2023-05-19T02:36:30.019Z,53.01
2023-05-19T02:38:56.428Z,52.34
2023-05-19T02:41:23.086Z,51.95
2023-05-19T02:43:49.441Z,51.90
2023-05-19T02:46:15.908Z,51.63
2023-05-19T02:48:42.479Z,52.14
2023-05-19T02:51:09.214Z,52.45
2023-05-19T02:53:35.823Z,51.97
2023-05-19T02:56:02.610Z,52.28
2023-05-19T02:58:29.015Z,51.79
2023-05-19T03:00:55.349Z,52.22
2023-05-19T03:03:21.840Z,51.76
2023-05-19T03:05:48.387Z,51.79
2023-05-19T03:08:14.791Z,52.44
2023-05-19T03:10:41.172Z,51.94
2023-05-19T03:13:07.657Z,52.64
2023-05-19T03:15:35.120Z,52.45
2023-05-19T03:18:01.861Z,51.83
2023-05-19T03:20:28.341Z,52.03
2023-05-19T03:22:54.953Z,52.63
2023-05-19T03:25:21.550Z,52.81
2023-05-19T03:27:47.912Z,52.46
2023-05-19T03:30:15.314Z,52.10
2023-05-19T03:32:42.186Z,51.78
2023-05-19T03:35:08.692Z,51.42
2023-05-19T03:37:35.175Z,52.09
2023-05-19T03:40:01.659Z,52.14
2023-05-19T03:42:28.064Z,51.60
2023-05-19T03:44:54.537Z,51.71
2023-05-19T03:47:21.588Z,51.68
2023-05-19T03:49:47.983Z,50.60
2023-05-19T03:52:14.399Z,51.19
2023-05-19T03:54:40.867Z,49.76
2023-05-19T03:57:07.553Z,51.31
2023-05-19T03:59:33.956Z,51.27
2023-05-19T04:02:00.452Z,51.15
2023-05-19T04:04:27.059Z,51.00
2023-05-19T04:06:53.473Z,51.06
2023-05-19T04:09:19.861Z,51.77
2023-05-19T04:11:46.240Z,51.13
2023-05-19T04:14:12.652Z,51.15
2023-05-19T04:16:40.169Z,51.36
2023-05-19T04:19:06.602Z,51.36
2023-05-19T04:21:33.317Z,51.16
2023-05-19T04:23:59.862Z,51.61
2023-05-19T04:26:26.329Z,51.08
2023-05-19T04:28:52.858Z,50.75
2023-05-19T04:31:19.393Z,51.25
2023-05-19T04:33:45.805Z,51.79
2023-05-19T04:36:12.222Z,51.41
2023-05-19T04:38:38.702Z,51.69
2023-05-19T04:41:05.265Z,50.74
2023-05-19T04:43:31.739Z,50.84
2023-05-19T04:45:58.223Z,50.57
2023-05-19T04:48:24.617Z,50.36
2023-05-19T04:50:51.243Z,49.75
2023-05-19T04:53:17.706Z,49.67
2023-05-19T04:55:44.167Z,49.74
2023-05-19T04:58:10.590Z,49.48
2023-05-19T05:00:37.043Z,49.88
2023-05-19T05:03:03.551Z,50.28
2023-05-19T05:05:30.094Z,49.84
2023-05-19T05:07:56.555Z,49.86
2023-05-19T05:10:23.005Z,49.71
2023-05-19T05:12:51.450Z,49.88
2023-05-19T05:15:17.854Z,50.32
2023-05-19T05:17:44.490Z,50.21
2023-05-19T05:20:10.998Z,50.35
2023-05-19T05:22:37.481Z,51.01
2023-05-19T05:25:04.878Z,51.33
2023-05-19T05:27:31.390Z,52.74
2023-05-19T05:29:59.275Z,51.79
2023-05-19T05:32:25.901Z,49.52
2023-05-19T05:34:52.712Z,48.87
2023-05-19T05:37:19.512Z,50.00
2023-05-19T05:39:48.171Z,49.37
2023-05-19T05:42:14.581Z,48.79
2023-05-19T05:44:41.460Z,47.80
2023-05-19T05:47:08.039Z,49.02
2023-05-19T05:49:34.479Z,49.25
2023-05-19T05:52:06.094Z,49.12
2023-05-19T05:54:33.092Z,48.34
2023-05-19T05:56:59.529Z,48.00
2023-05-19T05:59:26.005Z,48.48
2023-05-19T06:01:52.733Z,48.96
2023-05-19T06:04:19.185Z,49.04
2023-05-19T06:06:45.818Z,47.44
2023-05-19T06:09:12.506Z,48.42
2023-05-19T06:11:39.041Z,48.00
2023-05-19T06:14:05.690Z,48.42
2023-05-19T06:16:32.237Z,49.07
2023-05-19T06:18:59.118Z,48.97
2023-05-19T06:21:25.673Z,48.74
2023-05-19T06:23:52.106Z,47.49
2023-05-19T06:26:18.555Z,48.65
2023-05-19T06:28:45.179Z,47.72
2023-05-19T06:31:11.922Z,48.72
2023-05-19T06:33:38.338Z,48.27
2023-05-19T06:36:04.871Z,48.79
2023-05-19T06:38:31.664Z,49.36
2023-05-19T06:40:58.237Z,47.16
2023-05-19T06:43:24.700Z,46.53
2023-05-19T06:45:51.093Z,48.13
2023-05-19T06:48:17.539Z,48.75
2023-05-19T06:50:44.200Z,48.46
2023-05-19T06:53:10.664Z,48.28
2023-05-19T06:55:44.104Z,48.18
2023-05-19T06:58:21.193Z,47.77
2023-05-19T07:00:47.614Z,47.03
2023-05-19T07:03:14.207Z,47.18
2023-05-19T07:05:40.855Z,46.50
2023-05-19T07:08:07.547Z,47.91
2023-05-19T07:10:36.278Z,48.14
2023-05-19T07:13:02.919Z,47.58
2023-05-19T07:15:29.352Z,48.36
2023-05-19T07:17:55.925Z,48.57
2023-05-19T07:20:22.394Z,48.18
2023-05-19T07:22:50.750Z,48.26
2023-05-19T07:25:17.096Z,48.36
2023-05-19T07:27:43.570Z,48.73
2023-05-19T07:30:10.261Z,48.44
2023-05-19T07:32:36.654Z,48.10
2023-05-19T07:35:03.243Z,48.61
2023-05-19T07:37:29.757Z,47.62
2023-05-19T07:39:56.799Z,47.67
2023-05-19T07:42:23.259Z,47.70
2023-05-19T07:44:49.676Z,47.87
2023-05-19T07:47:18.130Z,47.51
2023-05-19T07:49:46.595Z,47.32
2023-05-19T07:52:12.993Z,46.69
2023-05-19T07:54:39.423Z,47.47
2023-05-19T07:57:08.275Z,47.21
2023-05-19T07:59:34.718Z,46.92
2023-05-19T08:02:01.223Z,44.88
2023-05-19T08:04:27.714Z,45.56
2023-05-19T08:06:54.326Z,46.26
2023-05-19T08:09:21.844Z,45.99
2023-05-19T08:11:48.333Z,46.19
2023-05-19T08:14:14.765Z,46.60
2023-05-19T08:16:41.586Z,46.07
2023-05-19T08:19:08.175Z,45.18
2023-05-19T08:21:34.619Z,45.92
2023-05-19T08:24:02.095Z,46.61
2023-05-19T08:26:28.508Z,46.54
2023-05-19T08:28:54.899Z,45.56
2023-05-19T08:31:21.832Z,46.10
2023-05-19T08:33:48.262Z,46.40
2023-05-19T08:36:15.172Z,45.32
2023-05-19T08:38:41.679Z,45.45
2023-05-19T08:41:08.170Z,45.63
2023-05-19T08:43:34.828Z,46.21
2023-05-19T08:46:01.259Z,45.60
2023-05-19T08:48:29.721Z,45.53
2023-05-19T08:50:56.155Z,46.15
2023-05-19T08:53:32.356Z,45.94
2023-05-19T08:56:01.565Z,45.93
2023-05-19T08:58:28.826Z,45.77
2023-05-19T09:00:55.465Z,46.94
2023-05-19T09:03:24.084Z,46.35
2023-05-19T09:05:50.859Z,46.11
2023-05-19T09:08:17.281Z,45.75
2023-05-19T09:10:43.857Z,45.75
2023-05-19T09:13:12.304Z,46.10
2023-05-19T09:15:39.100Z,46.06
2023-05-19T09:18:05.624Z,46.11
2023-05-19T09:20:32.165Z,45.94
2023-05-19T09:22:58.719Z,45.90
2023-05-19T09:25:27.459Z,46.48
2023-05-19T09:27:54.017Z,46.66
2023-05-19T09:30:20.409Z,46.21
2023-05-19T09:32:49.055Z,45.81
2023-05-19T09:35:15.733Z,45.63
2023-05-19T09:37:42.464Z,45.44
2023-05-19T09:40:10.050Z,45.10
2023-05-19T09:42:37.720Z,46.03
2023-05-19T09:45:04.407Z,44.82
2023-05-19T09:47:31.223Z,44.47
2023-05-19T09:49:57.690Z,44.74
2023-05-19T09:52:24.110Z,44.95
2023-05-19T09:54:50.522Z,45.04
2023-05-19T09:57:16.991Z,44.72
2023-05-19T09:59:43.898Z,45.27
2023-05-19T10:02:10.371Z,45.52
2023-05-19T10:04:36.937Z,45.21
2023-05-19T10:07:03.434Z,45.01
2023-05-19T10:09:29.953Z,44.77
2023-05-19T10:11:56.851Z,44.71
2023-05-19T10:14:23.380Z,44.62
2023-05-19T10:16:50.084Z,44.84
2023-05-19T10:19:16.674Z,44.54
2023-05-19T10:21:43.379Z,44.93
2023-05-19T10:24:11.577Z,45.20
2023-05-19T10:26:39.268Z,44.42
2023-05-19T10:29:05.792Z,43.95
2023-05-19T10:31:34.713Z,44.63
2023-05-19T10:34:03.894Z,44.45
2023-05-19T10:36:30.322Z,44.22
2023-05-19T10:38:56.852Z,43.92
2023-05-19T10:41:25.634Z,44.15
2023-05-19T10:43:52.065Z,44.74
2023-05-19T10:46:18.525Z,44.29
2023-05-19T10:48:45.222Z,44.95
2023-05-19T10:51:11.705Z,44.55
2023-05-19T10:53:38.250Z,45.16
2023-05-19T10:56:04.761Z,43.79
2023-05-19T10:58:31.195Z,44.36
2023-05-19T11:00:57.672Z,44.18
2023-05-19T11:03:24.519Z,44.58
2023-05-19T11:05:51.066Z,44.47
2023-05-19T11:08:17.455Z,44.84
2023-05-19T11:10:43.927Z,44.25
2023-05-19T11:13:10.401Z,44.27
2023-05-19T11:15:36.972Z,44.84
2023-05-19T11:18:03.524Z,43.79
2023-05-19T11:20:30.973Z,43.82
2023-05-19T11:22:57.457Z,44.30
2023-05-19T11:25:23.846Z,44.05
2023-05-19T11:27:50.369Z,43.57
2023-05-19T11:30:16.850Z,43.17
2023-05-19T11:32:43.340Z,42.86
2023-05-19T11:35:09.768Z,43.42
2023-05-19T11:37:36.213Z,43.88
2023-05-19T11:40:04.698Z,44.20
2023-05-19T11:42:31.236Z,44.47
2023-05-19T11:44:58.592Z,44.13
2023-05-19T11:47:25.274Z,43.81
2023-05-19T11:49:51.930Z,44.01
2023-05-19T11:52:18.443Z,44.29
2023-05-19T11:54:44.951Z,44.58
2023-05-19T11:57:11.423Z,44.16
2023-05-19T11:59:38.060Z,43.40
2023-05-19T12:02:04.486Z,43.20
2023-05-19T12:04:30.959Z,43.72
2023-05-19T12:06:57.678Z,43.67
2023-05-19T12:09:24.130Z,44.32
2023-05-19T12:11:50.558Z,44.53
2023-05-19T12:14:16.961Z,44.64
2023-05-19T12:16:43.822Z,44.20
2023-05-19T12:19:10.396Z,44.09
2023-05-19T12:21:37.333Z,44.18
2023-05-19T12:24:03.831Z,44.10
2023-05-19T12:26:30.407Z,44.05
2023-05-19T12:28:56.888Z,44.25
2023-05-19T12:31:23.669Z,44.28
2023-05-19T12:33:52.127Z,44.31
2023-05-19T12:36:18.656Z,44.31
2023-05-19T12:38:45.116Z,44.16
2023-05-19T12:41:11.734Z,44.20
2023-05-19T12:43:38.185Z,44.50
2023-05-19T12:46:04.661Z,44.00
2023-05-19T12:48:31.980Z,43.63
2023-05-19T12:50:58.386Z,43.68
2023-05-19T12:53:25.038Z,43.92
2023-05-19T12:55:51.486Z,44.24
2023-05-19T12:58:18.627Z,44.08
2023-05-19T13:00:45.339Z,44.42
2023-05-19T13:03:12.133Z,44.23
2023-05-19T13:05:38.650Z,44.11
2023-05-19T13:08:06.364Z,44.02
2023-05-19T13:10:33.209Z,43.81
2023-05-19T13:12:59.895Z,43.80
2023-05-19T13:15:26.589Z,43.59
2023-05-19T13:17:53.042Z,43.65
2023-05-19T13:20:19.612Z,43.38
2023-05-19T13:22:48.152Z,43.60
2023-05-19T13:25:14.651Z,43.08
2023-05-19T13:27:41.087Z,42.97
2023-05-19T13:30:07.517Z,42.74
2023-05-19T13:32:36.334Z,42.30
2023-05-19T13:35:02.782Z,41.56
2023-05-19T13:37:29.271Z,42.73
2023-05-19T13:39:55.895Z,42.98
2023-05-19T13:42:23.050Z,41.86
2023-05-19T13:44:49.408Z,41.77
2023-05-19T13:47:15.931Z,41.02
2023-05-19T13:49:42.516Z,42.02
2023-05-19T13:52:09.032Z,42.14
2023-05-19T13:54:35.414Z,42.16
2023-05-19T13:57:02.224Z,42.11
2023-05-19T13:59:28.639Z,41.54
2023-05-19T14:01:55.227Z,41.86
2023-05-19T14:04:21.846Z,41.88
2023-05-19T14:06:48.452Z,42.08
2023-05-19T14:09:16.084Z,41.55
2023-05-19T14:11:42.581Z,40.91
2023-05-19T14:14:11.104Z,40.89
2023-05-19T14:16:38.483Z,41.25
2023-05-19T14:19:05.040Z,41.52
2023-05-19T14:21:31.659Z,41.34
2023-05-19T14:23:58.169Z,41.34
2023-05-19T14:26:24.708Z,41.07
2023-05-19T14:28:51.130Z,41.65
2023-05-19T14:31:17.575Z,41.79
2023-05-19T14:33:44.136Z,41.55
2023-05-19T14:36:10.708Z,41.11
2023-05-19T14:38:38.084Z,41.19
2023-05-19T14:41:04.493Z,41.51
2023-05-19T14:43:30.998Z,41.86
2023-05-19T14:45:57.399Z,41.59
2023-05-19T14:48:23.806Z,42.08
2023-05-19T14:50:51.125Z,41.94
2023-05-19T14:53:17.576Z,42.15
2023-05-19T14:55:44.038Z,41.10
2023-05-19T14:58:23.704Z,41.73
2023-05-19T15:00:54.493Z,41.76
2023-05-19T15:03:21.230Z,40.62
2023-05-19T15:05:48.184Z,41.08
2023-05-19T15:08:14.621Z,41.06
2023-05-19T15:10:41.296Z,41.34
2023-05-19T15:13:07.814Z,41.68
2023-05-19T15:15:34.258Z,41.99
2023-05-19T15:18:00.924Z,41.94
2023-05-19T15:20:29.425Z,41.15
2023-05-19T15:22:56.019Z,41.26
2023-05-19T15:25:22.521Z,41.17
2023-05-19T15:27:49.150Z,41.89
2023-05-19T15:30:16.124Z,42.01
2023-05-19T15:32:42.572Z,41.72
2023-05-19T15:35:09.056Z,41.94
2023-05-19T15:37:35.401Z,42.25
2023-05-19T15:40:01.842Z,41.52
2023-05-19T15:42:28.347Z,41.82
2023-05-19T15:44:54.939Z,41.85
2023-05-19T15:47:21.388Z,42.04
2023-05-19T15:49:47.940Z,41.49
2023-05-19T15:52:14.441Z,41.39
2023-05-19T15:54:40.815Z,41.62
2023-05-19T15:57:07.631Z,41.75
2023-05-19T15:59:34.110Z,41.83
2023-05-19T16:02:00.535Z,41.93
2023-05-19T16:04:27.009Z,41.83
2023-05-19T16:06:53.474Z,42.35
2023-05-19T16:09:19.924Z,42.39
2023-05-19T16:11:46.493Z,42.29
2023-05-19T16:14:12.945Z,42.51
2023-05-19T16:16:39.431Z,42.11
2023-05-19T16:19:05.988Z,42.24
2023-05-19T16:21:32.429Z,42.30
2023-05-19T16:23:59.086Z,41.81
2023-05-19T16:26:25.474Z,42.21
2023-05-19T16:28:51.924Z,42.37
2023-05-19T16:31:18.380Z,42.01
2023-05-19T16:33:45.203Z,42.05
2023-05-19T16:36:11.600Z,42.45
2023-05-19T16:38:40.540Z,41.87
2023-05-19T16:41:07.240Z,41.69
2023-05-19T16:43:33.876Z,41.85
2023-05-19T16:46:00.382Z,42.36
2023-05-19T16:48:27.061Z,42.19
2023-05-19T16:50:53.464Z,42.81
2023-05-19T16:53:19.897Z,42.65
2023-05-19T16:55:46.323Z,42.92
2023-05-19T16:58:12.680Z,42.48
2023-05-19T17:00:39.171Z,42.26
2023-05-19T17:03:05.693Z,42.54
2023-05-19T17:05:32.171Z,42.93
2023-05-19T17:07:58.686Z,43.39
2023-05-19T17:10:25.100Z,43.09
2023-05-19T17:12:51.694Z,43.13
2023-05-19T17:15:18.138Z,43.69
2023-05-19T17:17:44.585Z,43.28
2023-05-19T17:20:11.367Z,43.56
2023-05-19T17:22:37.743Z,43.27
2023-05-19T17:25:04.250Z,43.97
2023-05-19T17:27:30.735Z,43.94
2023-05-19T17:29:57.288Z,43.78
2023-05-19T17:32:23.856Z,44.69
2023-05-19T17:34:52.398Z,44.60
2023-05-19T17:37:18.959Z,44.30
2023-05-19T17:39:45.404Z,44.19
2023-05-19T17:42:11.896Z,44.33
2023-05-19T17:44:38.429Z,44.44
2023-05-19T17:47:08.504Z,45.15
2023-05-19T17:49:35.146Z,44.90
2023-05-19T17:52:01.846Z,45.43
2023-05-19T17:54:28.419Z,45.69
2023-05-19T17:56:55.405Z,45.40
2023-05-19T17:59:23.089Z,45.26
2023-05-19T18:01:49.983Z,45.95
2023-05-19T18:04:16.808Z,45.75
2023-05-19T18:06:43.779Z,45.67
2023-05-19T18:09:10.612Z,46.80
2023-05-19T18:11:37.311Z,46.57
2023-05-19T18:14:03.955Z,46.49
2023-05-19T18:16:32.320Z,46.81
2023-05-19T18:18:59.605Z,46.57
2023-05-19T18:21:29.583Z,46.16
2023-05-19T18:23:56.512Z,46.05
2023-05-19T18:26:23.663Z,45.97
2023-05-19T18:28:50.820Z,46.19
2023-05-19T18:31:18.064Z,46.61
2023-05-19T18:33:46.341Z,47.21
2023-05-19T18:36:14.301Z,47.59
2023-05-19T18:38:41.919Z,47.71
2023-05-19T18:41:09.046Z,47.21
2023-05-19T18:43:36.580Z,46.70
2023-05-19T18:46:03.824Z,46.94
2023-05-19T18:48:35.465Z,47.51
2023-05-19T18:51:03.514Z,47.54
2023-05-19T18:53:30.837Z,47.75
2023-05-19T18:55:58.036Z,47.54
2023-05-19T18:58:25.525Z,47.88
2023-05-19T19:00:55.070Z,48.04
2023-05-19T19:03:22.508Z,48.24
2023-05-19T19:05:49.977Z,47.62
2023-05-19T19:08:17.539Z,48.22
2023-05-19T19:10:44.743Z,48.58
2023-05-19T19:13:12.395Z,48.20
2023-05-19T19:15:39.721Z,48.21
2023-05-19T19:18:08.233Z,48.07
2023-05-19T19:20:35.542Z,47.76
2023-05-19T19:23:03.035Z,47.75
2023-05-19T19:25:30.560Z,48.49
2023-05-19T19:27:57.752Z,48.74
2023-05-19T19:30:25.292Z,48.50
2023-05-19T19:32:53.241Z,48.27
2023-05-19T19:35:20.801Z,48.37
2023-05-19T19:37:48.113Z,48.62
2023-05-19T19:40:15.352Z,48.14
2023-05-19T19:42:45.223Z,48.33
2023-05-19T19:45:15.454Z,48.36
2023-05-19T19:47:43.084Z,48.47
2023-05-19T19:50:10.327Z,48.55
2023-05-19T19:52:38.069Z,48.25
2023-05-19T19:55:05.931Z,47.89
2023-05-19T19:57:33.116Z,48.36
2023-05-19T20:00:00.735Z,48.20
2023-05-19T20:02:28.575Z,47.70
2023-05-19T20:04:56.120Z,47.92
2023-05-19T20:07:23.477Z,47.59
2023-05-19T20:09:50.645Z,48.27
2023-05-19T20:12:17.948Z,47.91
2023-05-19T20:14:45.146Z,48.42
2023-05-19T20:17:12.389Z,48.39
2023-05-19T20:19:39.573Z,48.91
2023-05-19T20:22:09.562Z,48.52
2023-05-19T20:24:36.732Z,48.31
2023-05-19T20:27:03.958Z,48.43
2023-05-19T20:29:31.136Z,48.23
2023-05-19T20:31:58.327Z,48.66
2023-05-19T20:34:25.521Z,48.78
2023-05-19T20:36:53.341Z,48.93
2023-05-19T20:39:20.444Z,48.93
2023-05-19T20:41:47.522Z,48.91
2023-05-19T20:44:14.781Z,49.19
2023-05-19T20:46:42.180Z,49.13
2023-05-19T20:49:09.289Z,48.90
2023-05-19T20:51:36.423Z,48.99
2023-05-19T20:54:03.636Z,48.67
2023-05-19T20:56:30.574Z,48.73
2023-05-19T20:58:57.459Z,49.24
2023-05-19T21:01:24.202Z,49.28
2023-05-19T21:03:50.964Z,49.12
2023-05-19T21:06:17.380Z,48.52
2023-05-19T21:08:43.739Z,48.74
2023-05-19T21:11:12.622Z,49.01
2023-05-19T21:13:39.423Z,48.95
2023-05-19T21:16:05.876Z,49.04
2023-05-19T21:18:32.535Z,49.11
2023-05-19T21:20:58.936Z,49.06
2023-05-19T21:23:25.384Z,49.36
2023-05-19T21:25:51.820Z,49.54
2023-05-19T21:28:18.222Z,49.17
2023-05-19T21:30:45.004Z,49.41
2023-05-19T21:33:11.615Z,49.33
2023-05-19T21:35:38.199Z,49.61
2023-05-19T21:38:15.775Z,49.37
2023-05-19T21:40:49.571Z,49.78
2023-05-19T21:43:15.981Z,49.49
2023-05-19T21:45:43.054Z,49.06
2023-05-19T21:48:09.604Z,49.10
2023-05-19T21:50:36.216Z,49.27
2023-05-19T21:53:02.720Z,48.95
2023-05-19T21:55:29.168Z,49.45
2023-05-19T21:57:55.569Z,49.46
2023-05-19T22:00:21.943Z,49.21
2023-05-19T22:02:49.219Z,49.30
2023-05-19T22:05:15.696Z,49.08
2023-05-19T22:07:42.106Z,49.60
2023-05-19T22:10:08.526Z,49.40
2023-05-19T22:12:34.938Z,49.44
2023-05-19T22:15:01.397Z,49.45
2023-05-19T22:17:27.859Z,49.59
2023-05-19T22:19:54.337Z,49.50
2023-05-19T22:22:20.725Z,49.61
2023-05-19T22:24:47.571Z,49.37
2023-05-19T22:27:14.011Z,49.60
2023-05-19T22:29:40.555Z,49.64
2023-05-19T22:32:07.043Z,49.43
2023-05-19T22:34:33.506Z,49.61
2023-05-19T22:37:00.003Z,49.59
2023-05-19T22:39:26.453Z,49.28
2023-05-19T22:41:52.939Z,50.01
2023-05-19T22:44:19.416Z,49.87
2023-05-19T22:46:45.809Z,49.42
2023-05-19T22:49:12.254Z,49.51
2023-05-19T22:51:38.695Z,50.04
2023-05-19T22:54:05.121Z,49.90
2023-05-19T22:56:31.689Z,49.84
2023-05-19T22:58:58.138Z,49.49
2023-05-19T23:01:24.595Z,49.44
2023-05-19T23:03:51.102Z,49.58
2023-05-19T23:06:17.509Z,49.36
2023-05-19T23:08:44.834Z,49.92
2023-05-19T23:11:11.348Z,49.98
2023-05-19T23:13:37.921Z,49.99
2023-05-19T23:16:04.303Z,49.90
2023-05-19T23:18:30.800Z,49.61
2023-05-19T23:20:57.211Z,49.83
2023-05-19T23:23:23.625Z,50.02
2023-05-19T23:25:50.008Z,49.36
2023-05-19T23:28:16.543Z,49.77
2023-05-19T23:30:42.960Z,49.90
2023-05-19T23:33:09.423Z,50.22
2023-05-19T23:35:36.045Z,50.12
2023-05-19T23:38:02.674Z,50.23
2023-05-19T23:40:29.201Z,50.04
2023-05-19T23:42:57.912Z,50.08
2023-05-19T23:45:25.022Z,50.21
2023-05-19T23:47:51.554Z,50.47
2023-05-19T23:50:18.182Z,50.12
2023-05-19T23:52:44.625Z,50.17
2023-05-19T23:55:11.065Z,49.99
2023-05-19T23:57:37.499Z,50.22
